Time;durP1;ratioP1;P1;durP2;ratioP2;P2;SDS_P1;SDS_P2;PMS_P1;PMS_P2;Temp;Humidity;BMP_temperature;BMP_pressure;BME280_temperature;BME280_humidity;BME280_pressure;Samples;Min_cycle;Max_cycle;Signal;HPM_P1;HPM_P2
2021/08/02 00:00:13;;;;;;;7.30;1.27;;;;;;;;;;6014149;23;20036;-50
2021/08/02 00:02:49;;;;;;;4.10;1.23;;;;;;;;;;5988062;23;20278;-50
2021/08/02 00:05:17;;;;;;;2.97;1.13;;;;;;;;;;5991436;23;20045;-51
2021/08/02 00:07:43;;;;;;;5.38;1.23;;;;;;;;;;5989434;23;20038;-51
2021/08/02 00:10:11;;;;;;;4.72;1.80;;;;;;;;;;5992600;23;20025;-52
2021/08/02 00:12:41;;;;;;;3.53;1.17;;;;;;;;;;5992351;23;20034;-51
2021/08/02 00:15:08;;;;;;;4.53;1.13;;;;;;;;;;5991645;23;20042;-50
2021/08/02 00:17:38;;;;;;;8.30;1.40;;;;;;;;;;5992361;23;20026;-48
2021/08/02 00:20:05;;;;;;;5.53;1.55;;;;;;;;;;5981724;23;20062;-49
2021/08/02 00:22:31;;;;;;;8.60;1.63;;;;;;;;;;5987732;23;20045;-53
2021/08/02 00:24:58;;;;;;;9.10;1.50;;;;;;;;;;6005377;23;20041;-49
2021/08/02 00:27:24;;;;;;;3.90;1.25;;;;;;;;;;5992155;23;20112;-53
2021/08/02 00:29:51;;;;;;;3.53;1.52;;;;;;;;;;5983759;23;20030;-50
2021/08/02 00:32:17;;;;;;;5.93;1.48;;;;;;;;;;5990038;23;20037;-51
2021/08/02 00:34:46;;;;;;;5.03;1.77;;;;;;;;;;6013173;23;20025;-53
2021/08/02 00:37:18;;;;;;;4.97;2.03;;;;;;;;;;5992652;23;20022;-52
2021/08/02 00:39:47;;;;;;;4.50;2.00;;;;;;;;;;5982564;23;20042;-52
2021/08/02 00:42:35;;;;;;;7.68;2.00;;;;;;;;;;6010620;23;20025;-49
2021/08/02 00:45:08;;;;;;;5.43;1.98;;;;;;;;;;5991012;23;20073;-52
2021/08/02 00:47:36;;;;;;;3.72;1.38;;;;;;;;;;5990888;23;20037;-52
2021/08/02 00:50:05;;;;;;;7.45;1.40;;;;;;;;;;5984785;23;20022;-50
2021/08/02 00:52:33;;;;;;;6.28;1.48;;;;;;;;;;5965243;23;20030;-52
2021/08/02 00:55:02;;;;;;;6.53;1.55;;;;;;;;;;5970136;23;20082;-51
2021/08/02 00:57:31;;;;;;;6.78;1.60;;;;;;;;;;5991608;23;20034;-52
2021/08/02 00:59:58;;;;;;;2.72;1.17;;;;;;;;;;5988361;23;20049;-52
2021/08/02 01:02:25;;;;;;;8.00;1.90;;;;;;;;;;5990867;23;20119;-52
2021/08/02 01:04:54;;;;;;;5.35;1.50;;;;;;;;;;5989385;23;20029;-52
2021/08/02 01:07:22;;;;;;;5.93;1.67;;;;;;;;;;5964981;23;20031;-52
2021/08/02 01:09:50;;;;;;;4.55;1.52;;;;;;;;;;5988486;23;20038;-49
2021/08/02 01:12:16;;;;;;;7.40;1.90;;;;;;;;;;5990663;23;20056;-48
2021/08/02 01:14:51;;;;;;;8.68;1.70;;;;;;;;;;5993637;23;20120;-48
2021/08/02 01:17:17;;;;;;;5.22;1.95;;;;;;;;;;5989654;23;20117;-51
2021/08/02 01:19:45;;;;;;;8.50;2.35;;;;;;;;;;5994109;23;20026;-48
2021/08/02 01:22:17;;;;;;;10.53;2.10;;;;;;;;;;5984102;23;20090;-48
2021/08/02 01:24:47;;;;;;;6.72;2.00;;;;;;;;;;5987254;23;20038;-52
2021/08/02 01:27:22;;;;;;;6.82;2.05;;;;;;;;;;6004033;23;20045;-52
2021/08/02 01:30:07;;;;;;;9.77;2.10;;;;;;;;;;6017068;23;20049;-47
2021/08/02 01:32:34;;;;;;;6.68;1.92;;;;;;;;;;6006120;23;20058;-50
2021/08/02 01:35:00;;;;;;;5.63;1.73;;;;;;;;;;5967592;23;20038;-49
2021/08/02 01:37:28;;;;;;;7.35;1.63;;;;;;;;;;5972924;23;20042;-51
2021/08/02 01:39:55;;;;;;;7.10;1.87;;;;;;;;;;5964764;24;20037;-52
2021/08/02 01:42:21;;;;;;;8.30;2.00;;;;;;;;;;5984372;23;20276;-50
2021/08/02 01:44:48;;;;;;;2.97;1.55;;;;;;;;;;5962773;23;20041;-50
2021/08/02 01:47:16;;;;;;;6.10;2.10;;;;;;;;;;5993970;23;20117;-49
2021/08/02 01:49:46;;;;;;;9.60;1.98;;;;;;;;;;5991531;23;20032;-51
2021/08/02 01:52:16;;;;;;;4.68;1.63;;;;;;;;;;6006362;23;20030;-52
2021/08/02 01:54:47;;;;;;;3.00;1.60;;;;;;;;;;5962292;24;20042;-53
2021/08/02 01:57:18;;;;;;;6.25;1.92;;;;;;;;;;5963350;23;20045;-48
2021/08/02 01:59:46;;;;;;;4.60;1.80;;;;;;;;;;6015328;23;20026;-52
2021/08/02 02:02:14;;;;;;;8.57;1.80;;;;;;;;;;5988699;23;20037;-51
2021/08/02 02:04:43;;;;;;;6.38;1.63;;;;;;;;;;5992453;23;20030;-51
2021/08/02 02:07:11;;;;;;;9.07;1.95;;;;;;;;;;5991411;23;20030;-52
2021/08/02 02:09:39;;;;;;;7.60;1.77;;;;;;;;;;6014629;23;20034;-51
2021/08/02 02:12:08;;;;;;;8.80;1.95;;;;;;;;;;6016051;23;20108;-49
2021/08/02 02:14:37;;;;;;;3.67;1.50;;;;;;;;;;5963243;23;20031;-50
2021/08/02 02:17:04;;;;;;;8.80;1.98;;;;;;;;;;5961746;24;20049;-52
2021/08/02 02:19:33;;;;;;;6.50;1.85;;;;;;;;;;5959828;24;20035;-51
2021/08/02 02:22:01;;;;;;;4.45;1.67;;;;;;;;;;5968861;23;20107;-50
2021/08/02 02:24:28;;;;;;;3.90;1.80;;;;;;;;;;5986089;23;20038;-51
2021/08/02 02:26:56;;;;;;;3.83;1.95;;;;;;;;;;5978966;23;20031;-51
2021/08/02 02:29:25;;;;;;;12.93;2.00;;;;;;;;;;5976555;23;20033;-51
2021/08/02 02:31:51;;;;;;;;;;;;;;;;;;5990829;23;20042;-51
2021/08/02 02:34:18;;;;;;;3.85;1.65;;;;;;;;;;5987408;23;19925;-50
2021/08/02 02:36:45;;;;;;;5.28;1.65;;;;;;;;;;5990671;23;20052;-51
2021/08/02 02:39:12;;;;;;;13.30;3.55;;;;;;;;;;5982563;23;20109;-48
2021/08/02 02:41:38;;;;;;;6.85;2.88;;;;;;;;;;5962703;23;20035;-47
2021/08/02 02:44:05;;;;;;;7.55;2.60;;;;;;;;;;5965947;23;20030;-48
2021/08/02 02:46:33;;;;;;;7.95;2.03;;;;;;;;;;6001857;23;20046;-47
2021/08/02 02:49:00;;;;;;;4.55;1.90;;;;;;;;;;6015533;23;20045;-51
2021/08/02 02:51:27;;;;;;;4.85;1.70;;;;;;;;;;5994503;23;20033;-52
2021/08/02 02:53:55;;;;;;;5.00;1.33;;;;;;;;;;5992309;23;20030;-48
2021/08/02 02:56:22;;;;;;;5.28;1.90;;;;;;;;;;5960573;23;20045;-52
2021/08/02 02:58:48;;;;;;;4.00;1.45;;;;;;;;;;5966876;23;20038;-49
2021/08/02 03:01:16;;;;;;;4.80;1.48;;;;;;;;;;5961534;24;20048;-51
2021/08/02 03:03:45;;;;;;;4.35;1.63;;;;;;;;;;5963958;24;20461;-51
2021/08/02 03:06:13;;;;;;;8.77;1.67;;;;;;;;;;5979060;23;20044;-50
2021/08/02 03:08:41;;;;;;;5.22;1.80;;;;;;;;;;5990056;23;20018;-48
2021/08/02 03:11:08;;;;;;;5.65;1.60;;;;;;;;;;5984717;23;20053;-49
2021/08/02 03:13:34;;;;;;;6.35;1.63;;;;;;;;;;5965309;23;20038;-52
2021/08/02 03:16:02;;;;;;;8.05;1.67;;;;;;;;;;5994651;23;20038;-48
2021/08/02 03:18:29;;;;;;;5.67;1.80;;;;;;;;;;5965865;23;20086;-49
2021/08/02 03:20:56;;;;;;;4.93;1.15;;;;;;;;;;5963284;23;20516;-53
2021/08/02 03:23:25;;;;;;;3.53;1.27;;;;;;;;;;5964904;24;20034;-52
2021/08/02 03:25:54;;;;;;;4.80;1.42;;;;;;;;;;5961245;24;20124;-50
2021/08/02 03:28:25;;;;;;;11.00;1.80;;;;;;;;;;5965645;24;20111;-52
2021/08/02 03:30:55;;;;;;;3.55;1.50;;;;;;;;;;5965901;24;20050;-49
2021/08/02 03:33:24;;;;;;;6.43;1.15;;;;;;;;;;5992831;23;20034;-48
2021/08/02 03:35:52;;;;;;;4.75;1.30;;;;;;;;;;5990719;23;20034;-53
2021/08/02 03:38:20;;;;;;;8.38;1.50;;;;;;;;;;5992495;23;20042;-50
2021/08/02 03:40:47;;;;;;;4.57;1.27;;;;;;;;;;5980910;23;20022;-52
2021/08/02 03:43:14;;;;;;;7.45;1.80;;;;;;;;;;5986566;23;20120;-52
2021/08/02 03:45:42;;;;;;;5.78;1.70;;;;;;;;;;5994159;23;20022;-50
2021/08/02 03:48:10;;;;;;;3.78;1.10;;;;;;;;;;5994560;23;20030;-51
2021/08/02 03:50:37;;;;;;;7.93;1.63;;;;;;;;;;5991857;23;20034;-51
2021/08/02 03:53:04;;;;;;;4.72;1.30;;;;;;;;;;5984143;23;20042;-53
2021/08/02 03:55:35;;;;;;;5.68;1.38;;;;;;;;;;5985790;23;20045;-50
2021/08/02 03:58:04;;;;;;;4.60;1.55;;;;;;;;;;6003955;23;20046;-50
2021/08/02 04:00:32;;;;;;;4.10;1.38;;;;;;;;;;5992268;23;20076;-48
2021/08/02 04:02:59;;;;;;;3.85;1.30;;;;;;;;;;5987642;23;20038;-52
2021/08/02 04:05:27;;;;;;;5.82;1.40;;;;;;;;;;6011959;23;20112;-48
2021/08/02 04:07:54;;;;;;;7.97;1.70;;;;;;;;;;6009329;23;20093;-53
2021/08/02 04:10:20;;;;;;;4.40;1.33;;;;;;;;;;6011750;23;20030;-52
2021/08/02 04:12:48;;;;;;;7.75;1.40;;;;;;;;;;5983800;23;20036;-52
2021/08/02 04:15:15;;;;;;;6.53;1.60;;;;;;;;;;5989023;23;20041;-49
2021/08/02 04:17:41;;;;;;;4.82;1.40;;;;;;;;;;6010966;23;20025;-49
2021/08/02 04:20:08;;;;;;;6.32;1.60;;;;;;;;;;5984751;23;20033;-46
2021/08/02 04:22:35;;;;;;;5.88;1.60;;;;;;;;;;6011586;23;20026;-48
2021/08/02 04:25:01;;;;;;;6.68;1.42;;;;;;;;;;5991350;23;20061;-49
2021/08/02 04:27:28;;;;;;;4.70;1.55;;;;;;;;;;5989401;23;20033;-48
2021/08/02 04:29:56;;;;;;;4.07;1.33;;;;;;;;;;6011978;23;20033;-48
2021/08/02 04:32:22;;;;;;;8.80;1.60;;;;;;;;;;5982608;23;20058;-50
2021/08/02 04:34:49;;;;;;;3.40;1.38;;;;;;;;;;5987413;23;20275;-51
2021/08/02 04:37:15;;;;;;;6.30;1.73;;;;;;;;;;6011917;23;20030;-51
2021/08/02 04:39:42;;;;;;;7.07;1.40;;;;;;;;;;5988918;23;20048;-52
2021/08/02 04:42:08;;;;;;;7.72;1.38;;;;;;;;;;5986600;23;20052;-51
2021/08/02 04:44:35;;;;;;;9.30;1.60;;;;;;;;;;5976010;23;20034;-53
2021/08/02 04:47:03;;;;;;;4.60;1.50;;;;;;;;;;6013311;23;20088;-51
2021/08/02 04:49:29;;;;;;;4.13;1.48;;;;;;;;;;5981485;23;20037;-50
2021/08/02 04:51:56;;;;;;;5.30;1.45;;;;;;;;;;6007623;23;20085;-48
2021/08/02 04:54:24;;;;;;;6.63;1.63;;;;;;;;;;5978566;23;20041;-52
2021/08/02 04:56:51;;;;;;;;;;;;;;;;;;5988814;23;20104;-47
2021/08/02 04:59:17;;;;;;;3.55;1.27;;;;;;;;;;5978283;23;19972;-47
2021/08/02 05:01:43;;;;;;;4.25;1.50;;;;;;;;;;5986164;23;20141;-51
2021/08/02 05:04:11;;;;;;;5.50;1.60;;;;;;;;;;5984841;23;20041;-50
2021/08/02 05:06:37;;;;;;;6.35;1.88;;;;;;;;;;5983396;23;20030;-48
2021/08/02 05:09:04;;;;;;;6.00;1.63;;;;;;;;;;5986376;23;20034;-50
2021/08/02 05:11:31;;;;;;;7.65;2.03;;;;;;;;;;5987701;23;20037;-51
2021/08/02 05:13:58;;;;;;;9.60;3.75;;;;;;;;;;6014697;23;20046;-51
2021/08/02 05:16:25;;;;;;;7.65;2.95;;;;;;;;;;6011261;23;20042;-51
2021/08/02 05:18:51;;;;;;;10.90;2.50;;;;;;;;;;5991844;23;20038;-50
2021/08/02 05:21:19;;;;;;;5.28;2.10;;;;;;;;;;5986389;23;20026;-51
2021/08/02 05:23:45;;;;;;;5.43;2.33;;;;;;;;;;6011697;23;20045;-49
2021/08/02 05:26:12;;;;;;;7.57;2.20;;;;;;;;;;5986939;23;20362;-50
2021/08/02 05:28:38;;;;;;;5.50;2.30;;;;;;;;;;5983318;23;20041;-49
2021/08/02 05:31:05;;;;;;;9.60;2.20;;;;;;;;;;5984478;23;20034;-47
2021/08/02 05:33:31;;;;;;;9.52;2.30;;;;;;;;;;5980481;23;20149;-53
2021/08/02 05:36:03;;;;;;;8.07;2.60;;;;;;;;;;6009677;23;20025;-52
2021/08/02 05:38:31;;;;;;;8.25;2.45;;;;;;;;;;5985213;23;20030;-49
2021/08/02 05:40:58;;;;;;;7.13;2.20;;;;;;;;;;5983197;23;20038;-47
2021/08/02 05:43:25;;;;;;;10.15;4.35;;;;;;;;;;5987320;23;20111;-48
2021/08/02 05:45:52;;;;;;;16.38;7.30;;;;;;;;;;5982041;23;20054;-48
2021/08/02 05:48:18;;;;;;;14.95;5.68;;;;;;;;;;5992528;23;20030;-50
2021/08/02 05:50:45;;;;;;;9.23;3.90;;;;;;;;;;6013408;23;20045;-49
2021/08/02 05:53:11;;;;;;;10.50;2.67;;;;;;;;;;5985201;23;20046;-48
2021/08/02 05:55:40;;;;;;;8.13;2.40;;;;;;;;;;5987939;23;20112;-53
2021/08/02 05:58:06;;;;;;;6.90;2.47;;;;;;;;;;5981782;23;20034;-51
2021/08/02 06:00:46;;;;;;;6.78;2.40;;;;;;;;;;6012399;23;20029;-50
2021/08/02 06:03:12;;;;;;;4.90;1.90;;;;;;;;;;5985680;23;20038;-53
2021/08/02 06:05:45;;;;;;;13.32;6.53;;;;;;;;;;5989817;23;20021;-51
2021/08/02 06:08:12;;;;;;;24.13;8.98;;;;;;;;;;5985908;23;20045;-50
2021/08/02 06:10:40;;;;;;;14.23;4.20;;;;;;;;;;5990912;23;20029;-51
2021/08/02 06:13:06;;;;;;;6.38;1.85;;;;;;;;;;5972574;23;20100;-50
2021/08/02 06:15:34;;;;;;;5.63;1.60;;;;;;;;;;5961304;24;20046;-50
2021/08/02 06:18:00;;;;;;;6.00;1.77;;;;;;;;;;5962025;24;20104;-51
2021/08/02 06:20:27;;;;;;;4.18;1.40;;;;;;;;;;5962607;24;20027;-50
2021/08/02 06:22:53;;;;;;;5.18;1.48;;;;;;;;;;5968521;24;20042;-47
2021/08/02 06:25:20;;;;;;;3.95;1.15;;;;;;;;;;5992241;23;20030;-49
2021/08/02 06:27:48;;;;;;;7.35;1.38;;;;;;;;;;5986049;23;20068;-51
2021/08/02 06:30:16;;;;;;;4.53;1.05;;;;;;;;;;5991332;23;20116;-48
2021/08/02 06:32:42;;;;;;;8.18;1.20;;;;;;;;;;5988778;23;20074;-51
2021/08/02 06:35:09;;;;;;;7.82;1.08;;;;;;;;;;5992267;23;20033;-50
2021/08/02 06:37:39;;;;;;;2.58;0.90;;;;;;;;;;5991023;23;20092;-49
2021/08/02 06:40:06;;;;;;;3.72;0.95;;;;;;;;;;5986090;23;20046;-52
2021/08/02 06:42:32;;;;;;;6.35;1.48;;;;;;;;;;5991196;23;20088;-48
2021/08/02 06:45:00;;;;;;;6.50;1.20;;;;;;;;;;5987437;23;20048;-52
2021/08/02 06:47:27;;;;;;;2.45;0.90;;;;;;;;;;5992789;23;20090;-50
2021/08/02 06:49:53;;;;;;;4.82;1.30;;;;;;;;;;5985891;23;20034;-50
2021/08/02 06:52:20;;;;;;;2.55;1.13;;;;;;;;;;5968166;23;20031;-50
2021/08/02 06:54:46;;;;;;;5.80;1.10;;;;;;;;;;5997623;23;20026;-48
2021/08/02 06:57:14;;;;;;;3.90;1.08;;;;;;;;;;5963832;23;20393;-52
2021/08/02 06:59:40;;;;;;;5.60;1.00;;;;;;;;;;5976199;24;20030;-50
2021/08/02 07:02:08;;;;;;;1.52;0.88;;;;;;;;;;5993377;23;20026;-50
2021/08/02 07:04:34;;;;;;;2.90;0.90;;;;;;;;;;5994250;23;20120;-49
2021/08/02 07:07:01;;;;;;;2.97;0.93;;;;;;;;;;6017939;23;20045;-49
2021/08/02 07:09:27;;;;;;;1.55;0.70;;;;;;;;;;5991209;23;20026;-48
2021/08/02 07:11:54;;;;;;;5.68;1.08;;;;;;;;;;5994452;23;20034;-50
2021/08/02 07:14:20;;;;;;;4.13;0.80;;;;;;;;;;5990715;23;20033;-50
2021/08/02 07:16:47;;;;;;;4.22;1.05;;;;;;;;;;5991313;23;20034;-51
2021/08/02 07:19:17;;;;;;;3.72;0.98;;;;;;;;;;5994139;23;20026;-48
2021/08/02 07:21:43;;;;;;;9.05;1.73;;;;;;;;;;5983555;23;20078;-50
2021/08/02 07:24:10;;;;;;;2.70;0.88;;;;;;;;;;5964751;23;20034;-50
2021/08/02 07:26:37;;;;;;;5.30;0.93;;;;;;;;;;5963685;23;20071;-48
2021/08/02 07:29:04;;;;;;;4.10;1.00;;;;;;;;;;5969646;23;20034;-49
2021/08/02 07:31:30;;;;;;;4.13;1.13;;;;;;;;;;5961985;23;20030;-50
2021/08/02 07:33:57;;;;;;;4.70;1.00;;;;;;;;;;5963687;23;20049;-53
2021/08/02 07:36:25;;;;;;;4.10;1.30;;;;;;;;;;5976456;23;20026;-52
2021/08/02 07:38:51;;;;;;;7.13;1.33;;;;;;;;;;5990993;23;20116;-49
2021/08/02 07:41:18;;;;;;;6.65;1.20;;;;;;;;;;5985826;23;20038;-52
2021/08/02 07:43:45;;;;;;;3.97;1.13;;;;;;;;;;5967016;23;20046;-50
2021/08/02 07:46:12;;;;;;;6.80;1.38;;;;;;;;;;5984302;23;20148;-48
2021/08/02 07:48:38;;;;;;;1.60;1.10;;;;;;;;;;5994159;23;20069;-52
2021/08/02 07:51:05;;;;;;;3.40;1.58;;;;;;;;;;5990281;23;20030;-52
2021/08/02 07:53:33;;;;;;;3.95;1.20;;;;;;;;;;6016882;23;20036;-48
2021/08/02 07:56:01;;;;;;;1.80;1.10;;;;;;;;;;6014351;23;20044;-50
2021/08/02 07:58:27;;;;;;;4.38;1.38;;;;;;;;;;5992330;23;20037;-51
2021/08/02 08:00:56;;;;;;;3.30;1.23;;;;;;;;;;5992652;23;20030;-53
2021/08/02 08:03:23;;;;;;;3.88;1.50;;;;;;;;;;5984618;23;20038;-51
2021/08/02 08:05:53;;;;;;;5.97;1.35;;;;;;;;;;5966321;23;20034;-51
2021/08/02 08:08:20;;;;;;;7.53;1.35;;;;;;;;;;5986566;23;20127;-50
2021/08/02 08:10:48;;;;;;;7.53;1.33;;;;;;;;;;5991142;23;20030;-49
2021/08/02 08:13:15;;;;;;;3.92;1.90;;;;;;;;;;5989405;23;20053;-52
2021/08/02 08:15:42;;;;;;;6.78;1.65;;;;;;;;;;5992719;23;20049;-52
2021/08/02 08:18:08;;;;;;;4.65;1.75;;;;;;;;;;5992136;23;20026;-51
2021/08/02 08:20:35;;;;;;;4.43;1.42;;;;;;;;;;5992916;23;20034;-52
2021/08/02 08:23:01;;;;;;;4.28;1.02;;;;;;;;;;5974087;23;20037;-53
2021/08/02 08:25:31;;;;;;;3.05;1.20;;;;;;;;;;5989257;23;20030;-51
2021/08/02 08:27:59;;;;;;;8.05;1.10;;;;;;;;;;5998056;23;20049;-51
2021/08/02 08:30:25;;;;;;;3.97;0.82;;;;;;;;;;5993279;23;20584;-51
2021/08/02 08:32:52;;;;;;;1.75;0.98;;;;;;;;;;5983120;23;20038;-52
2021/08/02 08:35:19;;;;;;;2.05;0.80;;;;;;;;;;5966765;24;20038;-53
2021/08/02 08:37:45;;;;;;;4.68;0.98;;;;;;;;;;5964417;24;20056;-50
2021/08/02 08:40:12;;;;;;;3.17;0.95;;;;;;;;;;5992793;23;20048;-48
2021/08/02 08:42:40;;;;;;;4.15;1.27;;;;;;;;;;5991784;23;20124;-46
2021/08/02 08:45:10;;;;;;;2.45;0.73;;;;;;;;;;5986845;23;20034;-49
2021/08/02 08:47:37;;;;;;;1.40;0.80;;;;;;;;;;5986901;23;20050;-54
2021/08/02 08:50:04;;;;;;;4.47;1.00;;;;;;;;;;5965650;23;20126;-48
2021/08/02 08:52:34;;;;;;;2.72;0.88;;;;;;;;;;5964367;24;20037;-49
2021/08/02 08:55:08;;;;;;;6.53;1.88;;;;;;;;;;5961524;24;20046;-52
2021/08/02 08:57:34;;;;;;;4.82;1.23;;;;;;;;;;5966705;23;20038;-52
2021/08/02 09:00:01;;;;;;;4.50;1.80;;;;;;;;;;5983733;23;20044;-50
2021/08/02 09:02:29;;;;;;;4.07;1.02;;;;;;;;;;5995923;23;20086;-52
2021/08/02 09:04:56;;;;;;;;;;;;;;;;;;5973298;23;20027;-50
2021/08/02 09:07:32;;;;;;;4.32;0.90;;;;;;;;;;5962925;23;20017;-48
2021/08/02 09:09:59;;;;;;;6.05;1.00;;;;;;;;;;5965608;23;20091;-50
2021/08/02 09:12:26;;;;;;;2.20;0.82;;;;;;;;;;6015886;23;20046;-50
2021/08/02 09:14:53;;;;;;;3.35;0.85;;;;;;;;;;5984608;23;20046;-51
2021/08/02 09:17:26;;;;;;;2.92;1.00;;;;;;;;;;5986744;23;20128;-51
2021/08/02 09:19:54;;;;;;;4.75;0.93;;;;;;;;;;5972278;23;20037;-52
2021/08/02 09:22:25;;;;;;;4.60;1.00;;;;;;;;;;5989678;23;20026;-50
2021/08/02 09:25:03;;;;;;;3.38;0.90;;;;;;;;;;5984548;23;20292;-51
2021/08/02 09:27:30;;;;;;;6.05;1.00;;;;;;;;;;6007253;23;20034;-51
2021/08/02 09:29:56;;;;;;;5.90;1.10;;;;;;;;;;5963723;23;20027;-53
2021/08/02 09:32:23;;;;;;;6.85;1.00;;;;;;;;;;5991585;23;20026;-51
2021/08/02 09:34:49;;;;;;;4.20;0.98;;;;;;;;;;5986907;23;20022;-52
2021/08/02 09:37:23;;;;;;;5.30;1.10;;;;;;;;;;5990865;23;20045;-50
2021/08/02 09:39:50;;;;;;;5.72;1.25;;;;;;;;;;5993544;23;20048;-52
2021/08/02 09:42:22;;;;;;;2.70;0.85;;;;;;;;;;6014503;23;20037;-50
2021/08/02 09:44:58;;;;;;;8.35;0.88;;;;;;;;;;5993073;23;20049;-49
2021/08/02 09:47:27;;;;;;;4.32;1.00;;;;;;;;;;5991447;23;20029;-50
2021/08/02 09:49:54;;;;;;;3.13;0.80;;;;;;;;;;5978997;23;20062;-50
2021/08/02 09:52:21;;;;;;;3.63;0.90;;;;;;;;;;5989582;23;20026;-53
2021/08/02 09:54:59;;;;;;;4.45;1.13;;;;;;;;;;5991725;23;20038;-52
2021/08/02 09:57:25;;;;;;;3.25;0.73;;;;;;;;;;5982411;23;20042;-51
2021/08/02 09:59:53;;;;;;;4.00;1.00;;;;;;;;;;5988625;23;20035;-50
2021/08/02 10:02:19;;;;;;;6.18;0.90;;;;;;;;;;6006831;23;20056;-54
2021/08/02 10:04:46;;;;;;;2.72;0.80;;;;;;;;;;5993262;23;20034;-51
2021/08/02 10:07:16;;;;;;;3.83;0.93;;;;;;;;;;5997495;23;20045;-54
2021/08/02 10:09:43;;;;;;;6.82;1.17;;;;;;;;;;6016505;23;20040;-53
2021/08/02 10:12:11;;;;;;;5.63;0.90;;;;;;;;;;6012486;23;20052;-50
2021/08/02 10:14:37;;;;;;;5.90;1.02;;;;;;;;;;5992319;23;20471;-48
2021/08/02 10:17:08;;;;;;;12.20;1.35;;;;;;;;;;5983757;23;20031;-48
2021/08/02 10:19:36;;;;;;;2.65;1.00;;;;;;;;;;5987609;23;20041;-52
2021/08/02 10:22:02;;;;;;;2.78;1.00;;;;;;;;;;5971384;23;20037;-52
2021/08/02 10:24:29;;;;;;;2.58;0.80;;;;;;;;;;5992774;23;20041;-53
2021/08/02 10:26:57;;;;;;;9.32;1.30;;;;;;;;;;5979791;23;20032;-51
2021/08/02 10:29:25;;;;;;;8.00;1.10;;;;;;;;;;5994320;23;20107;-51
2021/08/02 10:31:53;;;;;;;4.88;1.20;;;;;;;;;;5992900;23;20041;-51
2021/08/02 10:34:23;;;;;;;4.43;0.90;;;;;;;;;;5993660;23;20041;-49
2021/08/02 10:36:59;;;;;;;6.82;1.05;;;;;;;;;;5995576;23;20033;-51
2021/08/02 10:39:28;;;;;;;2.92;0.85;;;;;;;;;;6016873;23;20124;-51
2021/08/02 10:42:04;;;;;;;8.38;0.85;;;;;;;;;;5970584;23;20105;-49
2021/08/02 10:44:32;;;;;;;4.78;0.73;;;;;;;;;;5992560;23;20034;-48
2021/08/02 10:47:00;;;;;;;4.25;0.80;;;;;;;;;;6015509;23;20114;-53
2021/08/02 10:49:26;;;;;;;2.63;0.82;;;;;;;;;;5991577;23;20048;-52
2021/08/02 10:51:54;;;;;;;2.25;0.80;;;;;;;;;;5992674;23;20148;-54
2021/08/02 10:54:22;;;;;;;6.43;0.95;;;;;;;;;;5984614;23;20042;-49
2021/08/02 10:56:58;;;;;;;3.92;1.00;;;;;;;;;;5971366;23;20030;-51
2021/08/02 10:59:25;;;;;;;5.50;0.95;;;;;;;;;;5989981;23;20029;-53
2021/08/02 11:01:53;;;;;;;3.90;1.07;;;;;;;;;;5991058;23;20049;-53
2021/08/02 11:04:21;;;;;;;7.97;1.10;;;;;;;;;;5974613;23;20272;-51
2021/08/02 11:06:48;;;;;;;7.03;1.02;;;;;;;;;;5965407;23;20316;-49
2021/08/02 11:09:15;;;;;;;2.50;0.73;;;;;;;;;;5975152;23;20046;-54
2021/08/02 11:11:42;;;;;;;8.50;1.35;;;;;;;;;;5989512;23;20038;-54
2021/08/02 11:14:10;;;;;;;3.28;1.02;;;;;;;;;;5988992;23;20038;-53
2021/08/02 11:16:39;;;;;;;4.40;1.27;;;;;;;;;;5963660;23;20042;-53
2021/08/02 11:19:14;;;;;;;2.22;0.85;;;;;;;;;;5967278;23;20038;-54
2021/08/02 11:21:41;;;;;;;4.13;0.77;;;;;;;;;;5991542;23;20033;-52
2021/08/02 11:24:10;;;;;;;4.80;0.93;;;;;;;;;;5991771;23;20038;-50
2021/08/02 11:26:45;;;;;;;9.43;1.13;;;;;;;;;;5993543;23;20034;-52
2021/08/02 11:29:17;;;;;;;4.22;0.80;;;;;;;;;;5990531;23;20041;-50
2021/08/02 11:31:43;;;;;;;2.60;1.23;;;;;;;;;;5965756;23;20042;-52
2021/08/02 11:34:18;;;;;;;3.28;1.13;;;;;;;;;;5964830;24;20038;-54
2021/08/02 11:36:44;;;;;;;2.58;0.90;;;;;;;;;;5992766;23;20045;-54
2021/08/02 11:39:15;;;;;;;6.60;1.10;;;;;;;;;;5995573;23;20041;-53
2021/08/02 11:41:46;;;;;;;7.63;1.00;;;;;;;;;;5982806;23;20034;-52
2021/08/02 11:44:13;;;;;;;8.95;1.02;;;;;;;;;;5985810;23;20087;-53
2021/08/02 11:46:40;;;;;;;3.78;0.70;;;;;;;;;;5984617;23;20033;-51
2021/08/02 11:49:08;;;;;;;5.65;0.95;;;;;;;;;;5992539;23;20034;-51
2021/08/02 11:51:38;;;;;;;3.42;1.00;;;;;;;;;;5992281;23;20033;-51
2021/08/02 11:54:04;;;;;;;6.47;1.23;;;;;;;;;;5993686;23;20038;-53
2021/08/02 11:56:31;;;;;;;3.03;0.85;;;;;;;;;;5989593;23;20045;-52
2021/08/02 11:58:58;;;;;;;6.00;0.82;;;;;;;;;;5994268;23;20038;-53
2021/08/02 12:01:25;;;;;;;7.93;1.10;;;;;;;;;;5990370;23;20111;-52
2021/08/02 12:03:55;;;;;;;2.05;0.98;;;;;;;;;;5993757;23;20052;-50
2021/08/02 12:06:21;;;;;;;3.25;1.50;;;;;;;;;;5983734;23;20027;-53
2021/08/02 12:08:54;;;;;;;6.05;1.40;;;;;;;;;;5989234;23;20046;-51
2021/08/02 12:11:20;;;;;;;4.90;2.03;;;;;;;;;;5969720;23;20030;-50
2021/08/02 12:13:48;;;;;;;5.55;0.82;;;;;;;;;;5966916;23;20041;-51
2021/08/02 12:16:25;;;;;;;4.65;1.20;;;;;;;;;;5969963;23;20050;-53
2021/08/02 12:19:02;;;;;;;6.00;1.20;;;;;;;;;;5990544;23;20049;-52
2021/08/02 12:21:29;;;;;;;1.23;0.77;;;;;;;;;;5988158;23;20038;-55
2021/08/02 12:24:04;;;;;;;6.78;0.90;;;;;;;;;;5990192;23;20030;-53
2021/08/02 12:26:30;;;;;;;3.05;0.95;;;;;;;;;;5987804;23;20038;-53
2021/08/02 12:28:57;;;;;;;4.63;1.25;;;;;;;;;;5992337;23;20063;-52
2021/08/02 12:31:23;;;;;;;4.60;1.02;;;;;;;;;;5993526;23;20037;-51
2021/08/02 12:33:51;;;;;;;3.67;0.88;;;;;;;;;;5984105;23;20034;-51
2021/08/02 12:36:18;;;;;;;3.70;0.93;;;;;;;;;;5966395;23;20053;-53
2021/08/02 12:38:45;;;;;;;3.13;0.90;;;;;;;;;;5987279;23;20048;-53
2021/08/02 12:41:13;;;;;;;3.10;1.00;;;;;;;;;;5993330;23;20034;-54
2021/08/02 12:43:42;;;;;;;3.72;1.10;;;;;;;;;;5974952;23;20034;-53
2021/08/02 12:46:08;;;;;;;;;;;;;;;;;;5965523;24;20086;-54
2021/08/02 12:48:35;;;;;;;4.32;1.40;;;;;;;;;;5976310;23;19967;-51
2021/08/02 12:51:01;;;;;;;4.80;1.10;;;;;;;;;;6016476;23;20074;-54
2021/08/02 12:53:27;;;;;;;2.25;0.90;;;;;;;;;;5996075;23;20030;-54
2021/08/02 12:55:54;;;;;;;1.92;0.80;;;;;;;;;;6016073;23;20045;-52
2021/08/02 12:58:22;;;;;;;1.98;0.80;;;;;;;;;;5988635;23;20066;-54
2021/08/02 13:00:48;;;;;;;7.10;1.00;;;;;;;;;;5993683;23;20112;-55
2021/08/02 13:03:15;;;;;;;2.13;1.00;;;;;;;;;;5984226;23;20033;-52
2021/08/02 13:05:46;;;;;;;3.97;1.20;;;;;;;;;;5963161;23;20038;-53
2021/08/02 13:08:13;;;;;;;3.15;1.02;;;;;;;;;;5964789;23;20026;-53
2021/08/02 13:10:40;;;;;;;10.13;1.10;;;;;;;;;;5976506;23;20175;-53
2021/08/02 13:13:06;;;;;;;4.10;0.90;;;;;;;;;;5965129;24;20041;-54
2021/08/02 13:15:36;;;;;;;3.28;0.93;;;;;;;;;;5994133;23;20034;-54
2021/08/02 13:18:02;;;;;;;1.15;0.75;;;;;;;;;;5992338;23;20041;-53
2021/08/02 13:20:30;;;;;;;2.10;0.85;;;;;;;;;;5983539;23;20049;-53
2021/08/02 13:22:59;;;;;;;4.07;1.00;;;;;;;;;;5987043;23;20044;-54
2021/08/02 13:28:10;;;;;;;6.93;1.63;;;;;;;;;;5985567;23;20023;-52
2021/08/02 13:30:41;;;;;;;3.08;1.10;;;;;;;;;;5961542;23;20117;-53
2021/08/02 13:33:07;;;;;;;7.82;1.15;;;;;;;;;;5966371;23;20143;-52
2021/08/02 13:35:34;;;;;;;2.50;1.10;;;;;;;;;;5962314;24;20050;-54
2021/08/02 13:38:01;;;;;;;2.88;0.93;;;;;;;;;;5964636;24;20046;-53
2021/08/02 13:40:27;;;;;;;4.07;0.90;;;;;;;;;;5975155;24;20061;-54
2021/08/02 13:42:54;;;;;;;3.10;1.05;;;;;;;;;;5969801;24;20109;-54
2021/08/02 13:45:22;;;;;;;1.50;0.90;;;;;;;;;;6006685;23;20037;-53
2021/08/02 13:47:49;;;;;;;3.65;1.00;;;;;;;;;;5992835;23;20041;-53
2021/08/02 13:50:16;;;;;;;2.30;0.80;;;;;;;;;;5985582;23;20034;-51
2021/08/02 13:52:42;;;;;;;3.78;1.00;;;;;;;;;;5964054;23;20146;-54
2021/08/02 13:55:10;;;;;;;4.90;0.98;;;;;;;;;;5990221;23;20041;-51
2021/08/02 13:57:37;;;;;;;2.80;0.93;;;;;;;;;;5994104;23;20048;-53
2021/08/02 14:00:04;;;;;;;3.53;0.95;;;;;;;;;;5990798;23;20132;-52
2021/08/02 14:02:33;;;;;;;4.97;1.13;;;;;;;;;;5963831;23;20037;-50
2021/08/02 14:05:01;;;;;;;7.05;1.10;;;;;;;;;;5961654;24;20053;-55
2021/08/02 14:07:27;;;;;;;7.97;1.27;;;;;;;;;;5963706;23;20038;-52
2021/08/02 14:09:54;;;;;;;3.28;0.98;;;;;;;;;;5971753;23;20044;-53
2021/08/02 14:12:25;;;;;;;7.28;1.13;;;;;;;;;;5994526;23;20138;-52
2021/08/02 14:14:53;;;;;;;6.68;1.10;;;;;;;;;;5992495;23;20034;-54
2021/08/02 14:17:22;;;;;;;5.07;1.70;;;;;;;;;;5983742;23;20099;-53
2021/08/02 14:19:50;;;;;;;3.05;1.02;;;;;;;;;;5992032;23;20038;-50
2021/08/02 14:22:18;;;;;;;6.67;1.00;;;;;;;;;;6004423;23;20026;-54
2021/08/02 14:24:46;;;;;;;3.47;0.88;;;;;;;;;;5962715;23;20038;-51
2021/08/02 14:27:12;;;;;;;7.93;1.83;;;;;;;;;;5974455;23;20041;-53
2021/08/02 14:29:40;;;;;;;4.63;1.17;;;;;;;;;;5992180;23;20034;-54
2021/08/02 14:32:07;;;;;;;5.77;1.17;;;;;;;;;;5986283;23;20070;-55
2021/08/02 14:34:35;;;;;;;2.53;0.90;;;;;;;;;;5990214;23;20077;-53
2021/08/02 14:37:03;;;;;;;3.53;1.00;;;;;;;;;;5982170;23;20038;-53
2021/08/02 14:39:38;;;;;;;2.58;0.95;;;;;;;;;;5964302;23;20080;-53
2021/08/02 14:42:06;;;;;;;1.55;0.98;;;;;;;;;;5964174;23;20048;-53
2021/08/02 14:44:38;;;;;;;1.75;0.70;;;;;;;;;;5993675;23;20029;-53
2021/08/02 14:47:08;;;;;;;4.45;1.20;;;;;;;;;;5988054;23;20177;-55
2021/08/02 14:49:39;;;;;;;2.83;0.75;;;;;;;;;;5997903;23;20045;-55